Terminal Aerodrome Forecast
Issued by NWS

Home | Current Version | Previous Version | Text Only | Print | Product List | Glossary On
Versions: 1 2 3 4 5 6 7 8 9 10 11 12 13 14
000
FTUS43 KMQT 302323
TAFCMX
TAF
KCMX 302323Z 0100/0124 09010KT P6SM OVC070
     FM010700 08014G26KT P6SM VCSH OVC050
     FM011000 08017G29KT P6SM -SHRA OVC020
     FM011200 07017G30KT 5SM -SHRA OVC008
     FM011600 07016G25KT 2SM -SHRA OVC003
     FM011900 07013KT 1 1/2SM -SHRA OVC003=

USA.gov is the U.S. government's official web portal to all federal, state and local government web resources and services.